sensor_id;sensor_type;location;lat;lon;timestamp;temperature;humidity
19817;DHT22;68323;49.394;8.434;2023-05-07T00:00:11;16.60;99.90
19817;DHT22;68323;49.394;8.434;2023-05-07T00:02:37;16.60;99.90
19817;DHT22;68323;49.394;8.434;2023-05-07T00:05:03;16.60;99.90
19817;DHT22;68323;49.394;8.434;2023-05-07T00:07:29;16.60;99.90
19817;DHT22;68323;49.394;8.434;2023-05-07T00:09:54;16.60;99.90
19817;DHT22;68323;49.394;8.434;2023-05-07T00:12:20;16.60;99.90
19817;DHT22;68323;49.394;8.434;2023-05-07T00:14:46;16.60;99.90
19817;DHT22;68323;49.394;8.434;2023-05-07T00:17:11;16.60;99.90
19817;DHT22;68323;49.394;8.434;2023-05-07T00:19:37;16.50;99.90
19817;DHT22;68323;49.394;8.434;2023-05-07T00:22:02;16.40;99.90
19817;DHT22;68323;49.394;8.434;2023-05-07T00:24:28;16.40;99.90
19817;DHT22;68323;49.394;8.434;2023-05-07T00:26:53;16.40;99.90
19817;DHT22;68323;49.394;8.434;2023-05-07T00:29:19;16.40;99.90
19817;DHT22;68323;49.394;8.434;2023-05-07T00:31:45;16.40;99.90
19817;DHT22;68323;49.394;8.434;2023-05-07T00:34:10;16.40;99.90
19817;DHT22;68323;49.394;8.434;2023-05-07T00:36:36;16.30;99.90
19817;DHT22;68323;49.394;8.434;2023-05-07T00:39:02;16.30;99.90
19817;DHT22;68323;49.394;8.434;2023-05-07T00:41:29;16.30;99.90
19817;DHT22;68323;49.394;8.434;2023-05-07T00:43:56;16.30;99.90
19817;DHT22;68323;49.394;8.434;2023-05-07T00:46:22;16.30;99.90
19817;DHT22;68323;49.394;8.434;2023-05-07T00:48:48;16.30;99.90
19817;DHT22;68323;49.394;8.434;2023-05-07T00:51:15;16.30;99.90
19817;DHT22;68323;49.394;8.434;2023-05-07T00:53:41;16.20;99.90
19817;DHT22;68323;49.394;8.434;2023-05-07T00:56:06;16.20;99.90
19817;DHT22;68323;49.394;8.434;2023-05-07T00:58:33;16.10;99.90
19817;DHT22;68323;49.394;8.434;2023-05-07T01:00:59;16.10;99.90
19817;DHT22;68323;49.394;8.434;2023-05-07T01:03:24;16.00;99.90
19817;DHT22;68323;49.394;8.434;2023-05-07T01:05:51;16.00;99.90
19817;DHT22;68323;49.394;8.434;2023-05-07T01:08:18;15.90;99.90
19817;DHT22;68323;49.394;8.434;2023-05-07T01:10:44;15.90;99.90
19817;DHT22;68323;49.394;8.434;2023-05-07T01:13:10;15.90;99.90
19817;DHT22;68323;49.394;8.434;2023-05-07T01:15:37;15.90;99.90
19817;DHT22;68323;49.394;8.434;2023-05-07T01:18:03;15.80;99.90
19817;DHT22;68323;49.394;8.434;2023-05-07T01:20:29;15.80;99.90
19817;DHT22;68323;49.394;8.434;2023-05-07T01:22:56;15.70;99.90
19817;DHT22;68323;49.394;8.434;2023-05-07T01:25:22;15.70;99.90
19817;DHT22;68323;49.394;8.434;2023-05-07T01:27:48;15.70;99.90
19817;DHT22;68323;49.394;8.434;2023-05-07T01:30:14;15.60;99.90
19817;DHT22;68323;49.394;8.434;2023-05-07T01:32:44;15.60;99.90
19817;DHT22;68323;49.394;8.434;2023-05-07T01:35:15;15.50;99.90
19817;DHT22;68323;49.394;8.434;2023-05-07T01:37:42;15.50;99.90
19817;DHT22;68323;49.394;8.434;2023-05-07T01:40:08;15.40;99.90
19817;DHT22;68323;49.394;8.434;2023-05-07T01:42:35;15.40;99.90
19817;DHT22;68323;49.394;8.434;2023-05-07T01:45:01;15.30;99.90
19817;DHT22;68323;49.394;8.434;2023-05-07T01:47:26;15.30;99.90
19817;DHT22;68323;49.394;8.434;2023-05-07T01:49:52;15.20;99.90
19817;DHT22;68323;49.394;8.434;2023-05-07T01:52:18;15.20;99.90
19817;DHT22;68323;49.394;8.434;2023-05-07T01:54:43;15.20;99.90
19817;DHT22;68323;49.394;8.434;2023-05-07T01:57:09;15.10;99.90
19817;DHT22;68323;49.394;8.434;2023-05-07T01:59:35;15.10;99.90
19817;DHT22;68323;49.394;8.434;2023-05-07T02:02:00;15.00;99.90
19817;DHT22;68323;49.394;8.434;2023-05-07T02:04:26;15.00;99.90
19817;DHT22;68323;49.394;8.434;2023-05-07T02:06:52;15.00;99.90
19817;DHT22;68323;49.394;8.434;2023-05-07T02:09:18;15.00;99.90
19817;DHT22;68323;49.394;8.434;2023-05-07T02:11:44;14.90;99.90
19817;DHT22;68323;49.394;8.434;2023-05-07T02:14:09;15.00;99.90
19817;DHT22;68323;49.394;8.434;2023-05-07T02:16:35;14.90;99.90
19817;DHT22;68323;49.394;8.434;2023-05-07T02:19:01;14.90;99.90
19817;DHT22;68323;49.394;8.434;2023-05-07T02:21:26;14.80;99.90
19817;DHT22;68323;49.394;8.434;2023-05-07T02:23:52;14.80;99.90
19817;DHT22;68323;49.394;8.434;2023-05-07T02:26:18;14.80;99.90
19817;DHT22;68323;49.394;8.434;2023-05-07T02:28:43;14.70;99.90
19817;DHT22;68323;49.394;8.434;2023-05-07T02:31:09;14.70;99.90
19817;DHT22;68323;49.394;8.434;2023-05-07T02:33:34;14.70;99.90
19817;DHT22;68323;49.394;8.434;2023-05-07T02:36:10;14.70;99.90
19817;DHT22;68323;49.394;8.434;2023-05-07T02:38:36;14.70;99.90
19817;DHT22;68323;49.394;8.434;2023-05-07T02:41:02;14.70;99.90
19817;DHT22;68323;49.394;8.434;2023-05-07T02:43:28;14.70;99.90
19817;DHT22;68323;49.394;8.434;2023-05-07T02:46:04;14.70;99.90
19817;DHT22;68323;49.394;8.434;2023-05-07T02:48:30;14.70;99.90
19817;DHT22;68323;49.394;8.434;2023-05-07T02:50:56;14.70;99.90
19817;DHT22;68323;49.394;8.434;2023-05-07T02:53:21;14.70;99.90
19817;DHT22;68323;49.394;8.434;2023-05-07T02:55:47;14.70;99.90
19817;DHT22;68323;49.394;8.434;2023-05-07T02:58:12;14.70;99.90
19817;DHT22;68323;49.394;8.434;2023-05-07T03:00:38;14.70;99.90
19817;DHT22;68323;49.394;8.434;2023-05-07T03:03:03;14.70;99.90
19817;DHT22;68323;49.394;8.434;2023-05-07T03:05:29;14.70;99.90
19817;DHT22;68323;49.394;8.434;2023-05-07T03:07:54;14.70;99.90
19817;DHT22;68323;49.394;8.434;2023-05-07T03:10:20;14.70;99.90
19817;DHT22;68323;49.394;8.434;2023-05-07T03:12:45;14.70;99.90
19817;DHT22;68323;49.394;8.434;2023-05-07T03:15:11;14.60;99.90
19817;DHT22;68323;49.394;8.434;2023-05-07T03:17:38;14.60;99.90
19817;DHT22;68323;49.394;8.434;2023-05-07T03:20:04;14.60;99.90
19817;DHT22;68323;49.394;8.434;2023-05-07T03:22:29;14.60;99.90
19817;DHT22;68323;49.394;8.434;2023-05-07T03:24:55;14.50;99.90
19817;DHT22;68323;49.394;8.434;2023-05-07T03:27:20;14.50;99.90
19817;DHT22;68323;49.394;8.434;2023-05-07T03:29:46;14.40;99.90
19817;DHT22;68323;49.394;8.434;2023-05-07T03:32:12;14.40;99.90
19817;DHT22;68323;49.394;8.434;2023-05-07T03:34:37;14.40;99.90
19817;DHT22;68323;49.394;8.434;2023-05-07T03:37:03;14.30;99.90
19817;DHT22;68323;49.394;8.434;2023-05-07T03:39:28;14.30;99.90
19817;DHT22;68323;49.394;8.434;2023-05-07T03:41:54;14.30;99.90
19817;DHT22;68323;49.394;8.434;2023-05-07T03:44:19;14.30;99.90
19817;DHT22;68323;49.394;8.434;2023-05-07T03:46:45;14.30;99.90
19817;DHT22;68323;49.394;8.434;2023-05-07T03:49:10;14.30;99.90
19817;DHT22;68323;49.394;8.434;2023-05-07T03:51:36;14.30;99.90
19817;DHT22;68323;49.394;8.434;2023-05-07T03:54:02;14.30;99.90
19817;DHT22;68323;49.394;8.434;2023-05-07T03:56:27;14.30;99.90
19817;DHT22;68323;49.394;8.434;2023-05-07T03:58:53;14.30;99.90
19817;DHT22;68323;49.394;8.434;2023-05-07T04:01:19;14.30;99.90
19817;DHT22;68323;49.394;8.434;2023-05-07T04:03:44;14.30;99.90
19817;DHT22;68323;49.394;8.434;2023-05-07T04:06:10;14.30;99.90
19817;DHT22;68323;49.394;8.434;2023-05-07T04:08:35;14.30;99.90
19817;DHT22;68323;49.394;8.434;2023-05-07T04:11:01;14.30;99.90
19817;DHT22;68323;49.394;8.434;2023-05-07T04:13:27;14.30;99.90
19817;DHT22;68323;49.394;8.434;2023-05-07T04:15:54;14.30;99.90
19817;DHT22;68323;49.394;8.434;2023-05-07T04:18:19;14.40;99.90
19817;DHT22;68323;49.394;8.434;2023-05-07T04:20:45;14.40;99.90
19817;DHT22;68323;49.394;8.434;2023-05-07T04:23:10;14.40;99.90
19817;DHT22;68323;49.394;8.434;2023-05-07T04:25:36;14.50;99.90
19817;DHT22;68323;49.394;8.434;2023-05-07T04:28:02;14.50;99.90
19817;DHT22;68323;49.394;8.434;2023-05-07T04:30:27;14.60;99.90
19817;DHT22;68323;49.394;8.434;2023-05-07T04:32:53;14.60;99.90
19817;DHT22;68323;49.394;8.434;2023-05-07T04:35:18;14.70;99.90
19817;DHT22;68323;49.394;8.434;2023-05-07T04:37:44;14.70;99.90
19817;DHT22;68323;49.394;8.434;2023-05-07T04:40:09;14.80;99.90
19817;DHT22;68323;49.394;8.434;2023-05-07T04:42:35;14.90;99.90
19817;DHT22;68323;49.394;8.434;2023-05-07T04:45:02;15.00;99.90
19817;DHT22;68323;49.394;8.434;2023-05-07T04:47:27;15.10;99.90
19817;DHT22;68323;49.394;8.434;2023-05-07T04:49:53;15.20;99.90
19817;DHT22;68323;49.394;8.434;2023-05-07T04:52:18;15.30;99.90
19817;DHT22;68323;49.394;8.434;2023-05-07T04:54:45;15.40;99.90
19817;DHT22;68323;49.394;8.434;2023-05-07T04:57:10;15.50;99.90
19817;DHT22;68323;49.394;8.434;2023-05-07T04:59:36;15.60;99.90
19817;DHT22;68323;49.394;8.434;2023-05-07T05:02:03;15.70;99.90
19817;DHT22;68323;49.394;8.434;2023-05-07T05:04:29;15.80;99.90
19817;DHT22;68323;49.394;8.434;2023-05-07T05:06:55;15.90;99.90
19817;DHT22;68323;49.394;8.434;2023-05-07T05:09:21;16.00;99.90
19817;DHT22;68323;49.394;8.434;2023-05-07T05:11:46;16.10;99.90
19817;DHT22;68323;49.394;8.434;2023-05-07T05:14:12;16.20;99.90
19817;DHT22;68323;49.394;8.434;2023-05-07T05:16:37;16.30;99.90
19817;DHT22;68323;49.394;8.434;2023-05-07T05:19:03;16.40;99.90
19817;DHT22;68323;49.394;8.434;2023-05-07T05:21:28;16.50;99.90
19817;DHT22;68323;49.394;8.434;2023-05-07T05:23:54;16.60;99.90
19817;DHT22;68323;49.394;8.434;2023-05-07T05:26:19;16.80;99.90
19817;DHT22;68323;49.394;8.434;2023-05-07T05:28:46;16.80;99.90
19817;DHT22;68323;49.394;8.434;2023-05-07T05:31:12;17.00;99.90
19817;DHT22;68323;49.394;8.434;2023-05-07T05:33:37;17.10;99.90
19817;DHT22;68323;49.394;8.434;2023-05-07T05:36:03;17.20;99.90
19817;DHT22;68323;49.394;8.434;2023-05-07T05:38:29;17.30;99.90
19817;DHT22;68323;49.394;8.434;2023-05-07T05:40:54;17.40;99.90
19817;DHT22;68323;49.394;8.434;2023-05-07T05:43:20;17.40;99.90
19817;DHT22;68323;49.394;8.434;2023-05-07T05:45:45;17.50;99.90
19817;DHT22;68323;49.394;8.434;2023-05-07T05:48:11;17.50;99.90
19817;DHT22;68323;49.394;8.434;2023-05-07T05:50:37;17.60;99.90
19817;DHT22;68323;49.394;8.434;2023-05-07T05:53:02;17.70;99.90
19817;DHT22;68323;49.394;8.434;2023-05-07T05:55:28;17.70;99.90
19817;DHT22;68323;49.394;8.434;2023-05-07T05:57:54;17.90;99.90
19817;DHT22;68323;49.394;8.434;2023-05-07T06:00:20;18.00;99.90
19817;DHT22;68323;49.394;8.434;2023-05-07T06:02:47;18.20;99.90
19817;DHT22;68323;49.394;8.434;2023-05-07T06:05:13;18.40;99.90
19817;DHT22;68323;49.394;8.434;2023-05-07T06:07:39;18.60;99.90
19817;DHT22;68323;49.394;8.434;2023-05-07T06:10:05;18.80;99.90
19817;DHT22;68323;49.394;8.434;2023-05-07T06:12:31;19.00;99.90
19817;DHT22;68323;49.394;8.434;2023-05-07T06:14:56;19.10;99.90
19817;DHT22;68323;49.394;8.434;2023-05-07T06:17:22;19.10;99.90
19817;DHT22;68323;49.394;8.434;2023-05-07T06:19:47;19.30;99.90
19817;DHT22;68323;49.394;8.434;2023-05-07T06:22:13;19.30;99.90
19817;DHT22;68323;49.394;8.434;2023-05-07T06:24:38;19.40;99.90
19817;DHT22;68323;49.394;8.434;2023-05-07T06:27:04;19.50;99.90
19817;DHT22;68323;49.394;8.434;2023-05-07T06:29:29;19.50;99.90
19817;DHT22;68323;49.394;8.434;2023-05-07T06:32:09;19.60;99.90
19817;DHT22;68323;49.394;8.434;2023-05-07T06:34:35;19.70;99.90
19817;DHT22;68323;49.394;8.434;2023-05-07T06:37:01;20.00;99.90
19817;DHT22;68323;49.394;8.434;2023-05-07T06:39:26;20.30;99.90
19817;DHT22;68323;49.394;8.434;2023-05-07T06:41:52;20.60;99.90
19817;DHT22;68323;49.394;8.434;2023-05-07T06:44:17;20.80;99.90
19817;DHT22;68323;49.394;8.434;2023-05-07T06:46:43;20.90;99.90
19817;DHT22;68323;49.394;8.434;2023-05-07T06:49:08;21.00;99.90
19817;DHT22;68323;49.394;8.434;2023-05-07T06:51:34;21.20;99.90
19817;DHT22;68323;49.394;8.434;2023-05-07T06:54:00;21.50;99.90
19817;DHT22;68323;49.394;8.434;2023-05-07T06:56:25;21.70;99.90
19817;DHT22;68323;49.394;8.434;2023-05-07T06:58:51;21.70;99.90
19817;DHT22;68323;49.394;8.434;2023-05-07T07:01:16;21.90;99.90
19817;DHT22;68323;49.394;8.434;2023-05-07T07:03:42;22.20;99.90
19817;DHT22;68323;49.394;8.434;2023-05-07T07:06:07;22.30;99.70
19817;DHT22;68323;49.394;8.434;2023-05-07T07:08:33;22.30;99.10
19817;DHT22;68323;49.394;8.434;2023-05-07T07:10:59;22.30;99.20
19817;DHT22;68323;49.394;8.434;2023-05-07T07:13:25;22.40;98.60
19817;DHT22;68323;49.394;8.434;2023-05-07T07:15:52;22.50;98.60
19817;DHT22;68323;49.394;8.434;2023-05-07T07:18:18;22.70;98.10
19817;DHT22;68323;49.394;8.434;2023-05-07T07:20:44;23.00;97.30
19817;DHT22;68323;49.394;8.434;2023-05-07T07:23:09;23.50;96.70
19817;DHT22;68323;49.394;8.434;2023-05-07T07:25:35;24.20;95.10
19817;DHT22;68323;49.394;8.434;2023-05-07T07:28:01;24.80;92.30
19817;DHT22;68323;49.394;8.434;2023-05-07T07:30:26;25.10;90.30
19817;DHT22;68323;49.394;8.434;2023-05-07T07:32:52;25.30;88.90
19817;DHT22;68323;49.394;8.434;2023-05-07T07:35:18;25.20;85.90
19817;DHT22;68323;49.394;8.434;2023-05-07T07:37:43;25.10;85.00
19817;DHT22;68323;49.394;8.434;2023-05-07T07:40:09;25.20;84.20
19817;DHT22;68323;49.394;8.434;2023-05-07T07:42:35;25.30;83.40
19817;DHT22;68323;49.394;8.434;2023-05-07T07:45:01;25.60;81.50
19817;DHT22;68323;49.394;8.434;2023-05-07T07:47:26;25.70;79.70
19817;DHT22;68323;49.394;8.434;2023-05-07T07:49:52;25.90;79.30
19817;DHT22;68323;49.394;8.434;2023-05-07T07:52:18;26.00;76.50
19817;DHT22;68323;49.394;8.434;2023-05-07T07:54:44;26.10;76.00
19817;DHT22;68323;49.394;8.434;2023-05-07T07:57:10;26.30;76.10
19817;DHT22;68323;49.394;8.434;2023-05-07T07:59:35;26.60;74.50
19817;DHT22;68323;49.394;8.434;2023-05-07T08:02:01;26.70;72.70
19817;DHT22;68323;49.394;8.434;2023-05-07T08:04:26;26.90;71.60
19817;DHT22;68323;49.394;8.434;2023-05-07T08:06:52;27.20;69.60
19817;DHT22;68323;49.394;8.434;2023-05-07T08:09:22;27.40;68.50
19817;DHT22;68323;49.394;8.434;2023-05-07T08:11:48;27.60;66.90
19817;DHT22;68323;49.394;8.434;2023-05-07T08:14:13;27.70;65.60
19817;DHT22;68323;49.394;8.434;2023-05-07T08:16:41;27.60;64.20
19817;DHT22;68323;49.394;8.434;2023-05-07T08:19:06;27.40;63.30
19817;DHT22;68323;49.394;8.434;2023-05-07T08:21:32;27.10;64.50
19817;DHT22;68323;49.394;8.434;2023-05-07T08:23:57;27.00;65.30
19817;DHT22;68323;49.394;8.434;2023-05-07T08:26:23;26.90;65.30
19817;DHT22;68323;49.394;8.434;2023-05-07T08:28:48;26.80;65.30
19817;DHT22;68323;49.394;8.434;2023-05-07T08:31:14;26.90;65.30
19817;DHT22;68323;49.394;8.434;2023-05-07T08:33:40;26.80;65.90
19817;DHT22;68323;49.394;8.434;2023-05-07T08:36:05;26.60;65.70
19817;DHT22;68323;49.394;8.434;2023-05-07T08:38:31;26.40;65.80
19817;DHT22;68323;49.394;8.434;2023-05-07T08:40:57;26.30;66.10
19817;DHT22;68323;49.394;8.434;2023-05-07T08:43:26;26.30;65.00
19817;DHT22;68323;49.394;8.434;2023-05-07T08:45:53;26.40;65.20
19817;DHT22;68323;49.394;8.434;2023-05-07T08:48:22;26.60;65.30
19817;DHT22;68323;49.394;8.434;2023-05-07T08:50:50;26.90;65.30
19817;DHT22;68323;49.394;8.434;2023-05-07T08:53:16;27.20;63.30
19817;DHT22;68323;49.394;8.434;2023-05-07T08:55:42;27.80;62.90
19817;DHT22;68323;49.394;8.434;2023-05-07T08:58:07;28.90;60.10
19817;DHT22;68323;49.394;8.434;2023-05-07T09:00:33;30.30;58.00
19817;DHT22;68323;49.394;8.434;2023-05-07T09:03:00;30.80;54.30
19817;DHT22;68323;49.394;8.434;2023-05-07T09:05:26;31.20;54.60
19817;DHT22;68323;49.394;8.434;2023-05-07T09:07:52;31.80;51.60
19817;DHT22;68323;49.394;8.434;2023-05-07T09:10:17;31.60;50.40
19817;DHT22;68323;49.394;8.434;2023-05-07T09:12:43;31.10;50.90
19817;DHT22;68323;49.394;8.434;2023-05-07T09:15:09;30.60;51.70
19817;DHT22;68323;49.394;8.434;2023-05-07T09:17:34;30.10;52.70
19817;DHT22;68323;49.394;8.434;2023-05-07T09:20:04;29.70;53.70
19817;DHT22;68323;49.394;8.434;2023-05-07T09:22:33;29.50;54.20
19817;DHT22;68323;49.394;8.434;2023-05-07T09:24:59;29.40;54.90
19817;DHT22;68323;49.394;8.434;2023-05-07T09:27:25;29.70;55.30
19817;DHT22;68323;49.394;8.434;2023-05-07T09:29:51;30.20;54.40
19817;DHT22;68323;49.394;8.434;2023-05-07T09:32:17;30.90;53.70
19817;DHT22;68323;49.394;8.434;2023-05-07T09:34:43;31.70;52.10
19817;DHT22;68323;49.394;8.434;2023-05-07T09:37:08;32.40;50.80
19817;DHT22;68323;49.394;8.434;2023-05-07T09:39:45;33.10;49.60
19817;DHT22;68323;49.394;8.434;2023-05-07T09:42:11;33.50;47.90
19817;DHT22;68323;49.394;8.434;2023-05-07T09:44:37;33.60;47.30
19817;DHT22;68323;49.394;8.434;2023-05-07T09:47:07;34.10;46.80
19817;DHT22;68323;49.394;8.434;2023-05-07T09:49:37;34.80;46.10
19817;DHT22;68323;49.394;8.434;2023-05-07T09:52:05;35.50;44.30
19817;DHT22;68323;49.394;8.434;2023-05-07T09:54:37;35.30;44.60
19817;DHT22;68323;49.394;8.434;2023-05-07T09:57:06;35.20;44.90
19817;DHT22;68323;49.394;8.434;2023-05-07T09:59:33;34.90;43.90
19817;DHT22;68323;49.394;8.434;2023-05-07T10:02:00;35.00;44.40
19817;DHT22;68323;49.394;8.434;2023-05-07T10:04:26;35.20;45.50
19817;DHT22;68323;49.394;8.434;2023-05-07T10:06:52;35.30;45.10
19817;DHT22;68323;49.394;8.434;2023-05-07T10:09:19;35.60;44.70
19817;DHT22;68323;49.394;8.434;2023-05-07T10:11:45;35.80;43.20
19817;DHT22;68323;49.394;8.434;2023-05-07T10:14:13;35.60;43.20
19817;DHT22;68323;49.394;8.434;2023-05-07T10:16:39;35.20;43.60
19817;DHT22;68323;49.394;8.434;2023-05-07T10:19:07;34.90;44.00
19817;DHT22;68323;49.394;8.434;2023-05-07T10:21:36;34.50;44.40
19817;DHT22;68323;49.394;8.434;2023-05-07T10:24:25;34.50;44.80
19817;DHT22;68323;49.394;8.434;2023-05-07T10:26:53;34.40;45.30
19817;DHT22;68323;49.394;8.434;2023-05-07T10:32:06;34.00;44.80
19817;DHT22;68323;49.394;8.434;2023-05-07T10:34:42;33.90;45.90
19817;DHT22;68323;49.394;8.434;2023-05-07T10:37:09;34.10;45.70
19817;DHT22;68323;49.394;8.434;2023-05-07T10:39:36;34.50;45.40
19817;DHT22;68323;49.394;8.434;2023-05-07T10:42:12;34.80;45.20
19817;DHT22;68323;49.394;8.434;2023-05-07T10:44:38;35.00;44.50
19817;DHT22;68323;49.394;8.434;2023-05-07T10:47:11;34.80;44.50
19817;DHT22;68323;49.394;8.434;2023-05-07T10:52:31;33.60;46.30
19817;DHT22;68323;49.394;8.434;2023-05-07T10:57:44;31.30;49.00
19817;DHT22;68323;49.394;8.434;2023-05-07T11:00:40;30.60;50.30
19817;DHT22;68323;49.394;8.434;2023-05-07T11:03:07;30.00;52.30
19817;DHT22;68323;49.394;8.434;2023-05-07T11:05:33;29.40;53.40
19817;DHT22;68323;49.394;8.434;2023-05-07T11:08:03;29.00;53.80
19817;DHT22;68323;49.394;8.434;2023-05-07T11:10:55;28.80;54.90
19817;DHT22;68323;49.394;8.434;2023-05-07T11:13:47;28.80;55.20
19817;DHT22;68323;49.394;8.434;2023-05-07T11:16:19;28.60;54.60
19817;DHT22;68323;49.394;8.434;2023-05-07T11:18:53;28.40;55.30
19817;DHT22;68323;49.394;8.434;2023-05-07T11:21:41;28.20;55.20
19817;DHT22;68323;49.394;8.434;2023-05-07T11:24:08;27.90;56.50
19817;DHT22;68323;49.394;8.434;2023-05-07T11:26:43;27.70;56.90
19817;DHT22;68323;49.394;8.434;2023-05-07T11:29:21;27.60;57.80
19817;DHT22;68323;49.394;8.434;2023-05-07T11:31:51;27.50;57.80
19817;DHT22;68323;49.394;8.434;2023-05-07T11:34:25;27.60;56.90
19817;DHT22;68323;49.394;8.434;2023-05-07T11:36:51;27.60;56.60
19817;DHT22;68323;49.394;8.434;2023-05-07T11:39:43;27.60;56.70
19817;DHT22;68323;49.394;8.434;2023-05-07T11:42:28;27.70;56.10
19817;DHT22;68323;49.394;8.434;2023-05-07T11:44:53;27.60;57.00
19817;DHT22;68323;49.394;8.434;2023-05-07T11:47:20;27.70;56.00
19817;DHT22;68323;49.394;8.434;2023-05-07T11:49:50;27.80;55.10
19817;DHT22;68323;49.394;8.434;2023-05-07T11:52:17;27.90;55.10
19817;DHT22;68323;49.394;8.434;2023-05-07T11:54:49;28.00;54.10
19817;DHT22;68323;49.394;8.434;2023-05-07T11:57:15;28.10;53.70
19817;DHT22;68323;49.394;8.434;2023-05-07T11:59:41;28.10;54.10
19817;DHT22;68323;49.394;8.434;2023-05-07T12:02:07;28.20;53.90
19817;DHT22;68323;49.394;8.434;2023-05-07T12:04:33;28.20;53.80
19817;DHT22;68323;49.394;8.434;2023-05-07T12:06:59;28.30;53.40
19817;DHT22;68323;49.394;8.434;2023-05-07T12:09:25;28.30;53.30
19817;DHT22;68323;49.394;8.434;2023-05-07T12:11:51;28.20;53.40
19817;DHT22;68323;49.394;8.434;2023-05-07T12:14:17;28.20;53.70
19817;DHT22;68323;49.394;8.434;2023-05-07T12:16:43;28.10;53.10
19817;DHT22;68323;49.394;8.434;2023-05-07T12:19:10;28.10;53.60
19817;DHT22;68323;49.394;8.434;2023-05-07T12:21:38;28.20;53.90
19817;DHT22;68323;49.394;8.434;2023-05-07T12:24:05;28.30;53.70
19817;DHT22;68323;49.394;8.434;2023-05-07T12:26:30;28.40;53.00
19817;DHT22;68323;49.394;8.434;2023-05-07T12:28:59;28.50;51.70
19817;DHT22;68323;49.394;8.434;2023-05-07T12:31:28;28.60;51.70
19817;DHT22;68323;49.394;8.434;2023-05-07T12:33:53;28.50;52.00
19817;DHT22;68323;49.394;8.434;2023-05-07T12:36:19;28.60;52.40
19817;DHT22;68323;49.394;8.434;2023-05-07T12:38:49;28.60;52.80
19817;DHT22;68323;49.394;8.434;2023-05-07T12:41:15;28.80;52.70
19817;DHT22;68323;49.394;8.434;2023-05-07T12:43:44;28.80;52.70
19817;DHT22;68323;49.394;8.434;2023-05-07T12:46:09;28.60;53.10
19817;DHT22;68323;49.394;8.434;2023-05-07T12:48:43;28.50;53.10
19817;DHT22;68323;49.394;8.434;2023-05-07T12:51:08;28.40;53.00
19817;DHT22;68323;49.394;8.434;2023-05-07T12:53:40;28.20;52.90
19817;DHT22;68323;49.394;8.434;2023-05-07T12:56:08;28.20;53.10
19817;DHT22;68323;49.394;8.434;2023-05-07T12:58:34;28.20;53.40
19817;DHT22;68323;49.394;8.434;2023-05-07T13:01:05;28.20;53.80
19817;DHT22;68323;49.394;8.434;2023-05-07T13:03:32;28.30;53.40
19817;DHT22;68323;49.394;8.434;2023-05-07T13:06:09;28.20;53.40
19817;DHT22;68323;49.394;8.434;2023-05-07T13:08:40;28.10;53.30
19817;DHT22;68323;49.394;8.434;2023-05-07T13:11:08;28.10;53.20
19817;DHT22;68323;49.394;8.434;2023-05-07T13:13:36;28.00;53.30
19817;DHT22;68323;49.394;8.434;2023-05-07T13:16:02;28.00;53.60
19817;DHT22;68323;49.394;8.434;2023-05-07T13:18:32;27.90;53.80
19817;DHT22;68323;49.394;8.434;2023-05-07T13:20:58;27.90;53.80
19817;DHT22;68323;49.394;8.434;2023-05-07T13:23:24;27.80;53.80
19817;DHT22;68323;49.394;8.434;2023-05-07T13:25:50;27.70;54.00
19817;DHT22;68323;49.394;8.434;2023-05-07T13:28:17;27.60;54.10
19817;DHT22;68323;49.394;8.434;2023-05-07T13:30:43;27.40;54.50
19817;DHT22;68323;49.394;8.434;2023-05-07T13:33:09;27.30;54.70
19817;DHT22;68323;49.394;8.434;2023-05-07T13:35:35;27.20;54.80
19817;DHT22;68323;49.394;8.434;2023-05-07T13:38:00;27.00;53.70
19817;DHT22;68323;49.394;8.434;2023-05-07T13:40:26;26.80;53.20
19817;DHT22;68323;49.394;8.434;2023-05-07T13:42:52;26.50;53.20
19817;DHT22;68323;49.394;8.434;2023-05-07T13:45:18;26.10;58.50
19817;DHT22;68323;49.394;8.434;2023-05-07T13:47:45;25.50;63.50
19817;DHT22;68323;49.394;8.434;2023-05-07T13:50:11;24.90;65.00
19817;DHT22;68323;49.394;8.434;2023-05-07T13:52:40;24.30;68.90
19817;DHT22;68323;49.394;8.434;2023-05-07T13:55:06;23.60;71.50
19817;DHT22;68323;49.394;8.434;2023-05-07T13:57:32;23.00;72.00
19817;DHT22;68323;49.394;8.434;2023-05-07T13:59:58;22.50;74.40
19817;DHT22;68323;49.394;8.434;2023-05-07T14:02:23;22.10;75.40
19817;DHT22;68323;49.394;8.434;2023-05-07T14:04:49;21.70;76.20
19817;DHT22;68323;49.394;8.434;2023-05-07T14:07:14;21.50;77.60
19817;DHT22;68323;49.394;8.434;2023-05-07T14:09:40;21.20;81.80
19817;DHT22;68323;49.394;8.434;2023-05-07T14:12:06;20.70;87.40
19817;DHT22;68323;49.394;8.434;2023-05-07T14:14:31;20.20;91.60
19817;DHT22;68323;49.394;8.434;2023-05-07T14:16:57;19.80;99.40
19817;DHT22;68323;49.394;8.434;2023-05-07T14:19:22;19.50;99.90
19817;DHT22;68323;49.394;8.434;2023-05-07T14:21:48;19.20;99.90
19817;DHT22;68323;49.394;8.434;2023-05-07T14:24:14;19.10;99.90
19817;DHT22;68323;49.394;8.434;2023-05-07T14:26:40;18.90;99.90
19817;DHT22;68323;49.394;8.434;2023-05-07T14:29:05;18.80;99.90
19817;DHT22;68323;49.394;8.434;2023-05-07T14:31:31;18.70;99.90
19817;DHT22;68323;49.394;8.434;2023-05-07T14:33:56;18.70;99.90
19817;DHT22;68323;49.394;8.434;2023-05-07T14:36:25;18.70;99.90
19817;DHT22;68323;49.394;8.434;2023-05-07T14:38:52;18.60;99.90
19817;DHT22;68323;49.394;8.434;2023-05-07T14:41:19;18.60;99.90
19817;DHT22;68323;49.394;8.434;2023-05-07T14:43:46;18.60;99.90
19817;DHT22;68323;49.394;8.434;2023-05-07T14:46:16;18.50;99.90
19817;DHT22;68323;49.394;8.434;2023-05-07T14:48:43;18.40;99.90
19817;DHT22;68323;49.394;8.434;2023-05-07T14:51:09;18.30;99.90
19817;DHT22;68323;49.394;8.434;2023-05-07T14:53:35;18.10;99.90
19817;DHT22;68323;49.394;8.434;2023-05-07T14:56:00;18.00;99.90
19817;DHT22;68323;49.394;8.434;2023-05-07T14:58:26;17.90;99.90
19817;DHT22;68323;49.394;8.434;2023-05-07T15:00:51;17.70;99.90
19817;DHT22;68323;49.394;8.434;2023-05-07T15:03:17;17.70;99.90
19817;DHT22;68323;49.394;8.434;2023-05-07T15:05:42;17.60;99.90
19817;DHT22;68323;49.394;8.434;2023-05-07T15:08:08;17.40;99.90
19817;DHT22;68323;49.394;8.434;2023-05-07T15:10:37;17.30;99.90
19817;DHT22;68323;49.394;8.434;2023-05-07T15:13:10;17.30;99.90
19817;DHT22;68323;49.394;8.434;2023-05-07T15:15:35;17.20;99.90
19817;DHT22;68323;49.394;8.434;2023-05-07T15:18:02;17.00;99.90
19817;DHT22;68323;49.394;8.434;2023-05-07T15:20:27;16.90;99.90
19817;DHT22;68323;49.394;8.434;2023-05-07T15:22:53;16.90;99.90
19817;DHT22;68323;49.394;8.434;2023-05-07T15:25:19;16.80;99.90
19817;DHT22;68323;49.394;8.434;2023-05-07T15:27:45;16.80;99.90
19817;DHT22;68323;49.394;8.434;2023-05-07T15:30:11;16.70;99.90
19817;DHT22;68323;49.394;8.434;2023-05-07T15:32:37;16.70;99.90
19817;DHT22;68323;49.394;8.434;2023-05-07T15:35:04;16.60;99.90